createdAt,value
2016-10-10T13:45:58.505Z,22.34
2016-10-10T13:46:43.770Z,22.31
2016-10-10T13:47:43.741Z,22.34
2016-10-10T13:48:43.753Z,22.37
2016-10-10T13:49:44.168Z,22.44
2016-10-10T13:50:44.733Z,22.46
2016-10-10T13:51:43.674Z,22.54
2016-10-10T13:52:43.670Z,22.5
2016-10-10T13:53:44.061Z,22.53
2016-10-10T13:54:43.655Z,22.57
2016-10-10T13:55:43.665Z,22.6
2016-10-10T13:56:43.968Z,22.64
2016-10-10T14:01:31.035Z,22.34
2016-10-10T14:02:30.002Z,22.2
2016-10-10T14:03:29.796Z,22.01
2016-10-10T14:04:36.166Z,21.95
2016-10-10T14:05:30.195Z,21.74
2016-10-10T14:06:29.713Z,21.66
2016-10-10T14:07:29.807Z,21.5
2016-10-10T14:08:29.886Z,21.44
2016-10-10T14:09:30.406Z,21.38
2016-10-10T14:10:30.008Z,21.26
2016-10-10T14:11:29.585Z,21.19
2016-10-10T14:13:38.255Z,21.09
2016-10-10T14:14:38.518Z,20.98
2016-10-10T14:15:38.103Z,20.91
2016-10-10T14:16:38.033Z,20.81
2016-10-10T14:17:38.316Z,20.84
2016-10-10T14:18:52.820Z,20.8
2016-10-10T14:19:38.133Z,20.74
2016-10-10T14:20:38.791Z,20.72
2016-10-10T14:21:37.983Z,20.61
2016-10-10T14:22:41.577Z,20.58
2016-10-10T14:23:38.171Z,20.47
2016-10-10T14:24:38.089Z,20.39
2016-10-10T14:26:37.799Z,20.31
2016-10-10T14:27:37.760Z,20.28
2016-10-10T14:28:37.797Z,20.3
2016-10-10T14:30:37.757Z,20.18
2016-10-10T14:31:37.666Z,20.16
2016-10-10T14:32:39.111Z,20.15
2016-10-10T14:37:10.698Z,20.03
2016-10-10T14:38:09.104Z,19.9
2016-10-10T14:39:09.775Z,19.94
2016-10-10T14:41:47.531Z,19.9
2016-10-10T14:43:41.007Z,20.13
2016-10-10T14:44:41.015Z,20.3
2016-10-10T14:45:41.051Z,20.39
2016-10-10T14:46:41.340Z,20.71
2016-10-10T14:47:41.485Z,20.84
2016-10-10T14:49:50.322Z,20.96
2016-10-10T14:50:50.550Z,21.05
2016-10-10T14:51:49.819Z,21.19
2016-10-10T14:52:49.850Z,21.29
2016-10-10T14:54:51.067Z,21.44
2016-10-10T14:55:50.619Z,21.54
2016-10-10T14:56:49.658Z,21.57
2016-10-10T14:57:50.952Z,21.63
2016-10-10T14:58:49.659Z,21.76
2016-10-10T14:59:49.612Z,21.82
2016-10-10T15:01:04.580Z,21.88
2016-10-10T15:01:49.672Z,21.94
2016-10-10T15:02:50.049Z,21.92
2016-10-10T15:03:49.616Z,21.98
2016-10-10T15:04:49.485Z,21.99
2016-10-10T15:06:50.911Z,22.12
2016-10-10T15:07:49.542Z,22.09
2016-10-10T15:08:50.244Z,22.19
2016-10-10T15:10:04.013Z,22.16
2016-10-10T15:10:51.010Z,22.28
2016-10-10T15:11:49.875Z,22.35
2016-10-10T15:12:50.018Z,22.38
2016-10-10T15:14:04.007Z,22.38
2016-10-10T15:14:49.230Z,22.37
2016-10-10T15:16:03.915Z,22.44
2016-10-10T15:16:49.646Z,22.41
2016-10-10T15:18:49.059Z,22.56
2016-10-10T15:19:49.116Z,22.54
2016-10-10T15:20:51.094Z,22.59
2016-10-10T15:21:49.083Z,22.57
2016-10-10T15:22:49.031Z,22.67
2016-10-10T15:23:49.138Z,22.68
2016-10-10T15:25:03.630Z,22.6
2016-10-10T15:25:49.551Z,22.6
2016-10-10T15:26:49.030Z,22.34
2016-10-10T15:27:48.905Z,22.28
2016-10-10T15:29:03.522Z,22.02
2016-10-10T15:29:49.285Z,21.98
2016-10-10T15:30:49.648Z,21.85
2016-10-10T15:31:49.109Z,21.72
2016-10-10T15:32:48.887Z,21.56
2016-10-10T15:33:50.004Z,21.48
2016-10-10T15:34:49.665Z,21.42
2016-10-10T15:35:49.243Z,21.23
2016-10-10T15:36:48.794Z,21.23
2016-10-10T15:37:48.712Z,21.11
2016-10-10T15:38:49.079Z,21.08
2016-10-10T15:39:48.966Z,21.01
2016-10-10T15:40:49.916Z,20.95
2016-10-10T15:42:03.581Z,20.87
2016-10-10T15:42:50.299Z,20.86
2016-10-10T15:43:48.565Z,20.86
2016-10-10T15:44:48.996Z,20.74
2016-10-10T15:45:48.634Z,20.74
2016-10-10T15:47:07.778Z,20.69
2016-10-10T15:47:48.506Z,20.62
2016-10-10T15:48:48.677Z,20.59
2016-10-10T15:49:48.328Z,20.51
2016-10-10T15:50:48.274Z,20.43
2016-10-10T15:51:48.732Z,20.34
2016-10-10T15:52:48.879Z,20.33
2016-10-10T15:54:48.365Z,20.28
2016-10-10T15:55:48.208Z,20.2
2016-10-10T15:56:48.493Z,20.24
2016-10-10T15:57:48.256Z,20.24
2016-10-10T15:58:48.622Z,20.18
2016-10-10T16:07:44.165Z,19.86
2016-10-10T16:08:45.703Z,19.94
2016-10-10T16:09:43.790Z,20
2016-10-10T16:17:16.414Z,21.14
2016-10-10T16:18:16.748Z,21.24
2016-10-10T16:19:16.295Z,21.29
2016-10-10T16:26:18.375Z,21.88
2016-10-10T16:26:48.712Z,21.9
2016-10-10T16:27:48.624Z,21.9
2016-10-10T16:28:48.660Z,21.82
2016-10-10T16:29:48.674Z,21.97
2016-10-10T16:31:03.696Z,21.94
2016-10-10T16:31:48.901Z,22.01
2016-10-10T16:33:03.173Z,22.13
2016-10-10T16:33:48.700Z,22.09
2016-10-10T16:34:48.774Z,22.17
2016-10-10T16:35:48.695Z,22.19
2016-10-10T16:36:48.439Z,22.29
2016-10-10T16:37:48.639Z,22.29
2016-10-10T16:38:48.719Z,22.31
2016-10-10T16:39:48.767Z,22.38
2016-10-10T16:40:48.451Z,22.38
2016-10-10T16:41:48.495Z,22.47
2016-10-10T16:42:48.926Z,22.52
2016-10-10T16:43:48.829Z,22.52
2016-10-10T16:45:17.564Z,22.59
2016-10-10T16:45:48.485Z,22.59
2016-10-10T16:46:49.140Z,22.6
2016-10-10T16:47:48.133Z,22.54
2016-10-10T16:48:48.204Z,22.5
2016-10-10T16:49:48.171Z,22.29
2016-10-10T16:50:48.641Z,22.2
2016-10-10T16:51:48.511Z,21.98
2016-10-10T16:52:48.159Z,21.91
2016-10-10T16:53:48.447Z,21.71
2016-10-10T16:54:47.994Z,21.66
2016-10-10T16:55:48.261Z,21.48
2016-10-10T16:56:49.034Z,21.41
2016-10-10T16:57:48.283Z,21.26
2016-10-10T16:58:47.944Z,21.24
2016-10-10T16:59:47.865Z,21.11
2016-10-10T17:02:26.217Z,20.9
2016-10-10T17:03:11.018Z,20.89
2016-10-10T17:04:26.027Z,20.93
2016-10-10T17:05:10.986Z,20.84
2016-10-10T17:06:25.551Z,20.86
2016-10-10T17:07:10.824Z,20.74
2016-10-10T17:10:03.833Z,20.61
2016-10-10T17:10:33.972Z,20.56
2016-10-10T17:11:48.601Z,20.53
2016-10-10T17:12:34.969Z,20.41
2016-10-10T17:13:33.853Z,20.39
2016-10-10T17:14:35.290Z,20.43
2016-10-10T17:15:38.243Z,20.33
2016-10-10T17:16:33.802Z,20.28
2016-10-10T17:17:33.760Z,20.25
2016-10-10T17:18:33.741Z,20.21
2016-10-10T17:19:35.790Z,20.25
2016-10-10T17:20:34.185Z,20.15
2016-10-10T17:21:34.373Z,20.15
2016-10-10T17:22:33.895Z,20.09
2016-10-10T17:23:35.070Z,20.1
2016-10-10T17:24:33.572Z,20.06
2016-10-10T17:25:33.566Z,20.03
2016-10-10T17:26:34.746Z,20
2016-10-10T17:27:33.477Z,19.93
2016-10-10T17:28:48.232Z,19.9
2016-10-10T17:29:33.655Z,19.86
2016-10-10T17:30:33.448Z,19.88
2016-10-10T17:31:33.460Z,20.08
2016-10-10T17:32:33.437Z,20.12
2016-10-10T17:33:36.181Z,20.3
2016-10-10T17:34:33.873Z,20.41
2016-10-10T17:35:36.048Z,20.68
2016-10-10T17:36:34.851Z,20.86
2016-10-10T17:37:33.825Z,20.91
2016-10-10T17:38:34.168Z,20.98
2016-10-10T17:39:33.235Z,21.05
2016-10-10T17:40:33.611Z,21.14
2016-10-10T17:41:33.870Z,21.24
2016-10-10T17:42:33.068Z,21.39
2016-10-10T17:43:33.061Z,21.44
2016-10-10T17:44:33.777Z,21.5
2016-10-10T17:45:33.247Z,21.61
2016-10-10T17:46:33.115Z,21.69
2016-10-10T17:47:32.986Z,21.78
2016-10-10T17:48:33.393Z,21.74
2016-10-10T17:49:33.385Z,21.88
2016-10-10T17:51:32.918Z,21.92
2016-10-10T17:52:33.071Z,21.99
2016-10-10T17:53:32.991Z,21.98
2016-10-10T17:54:33.975Z,22.07
2016-10-10T17:55:32.774Z,22.02
2016-10-10T17:56:32.812Z,22.14
2016-10-10T17:57:32.752Z,22.14
2016-10-10T17:58:32.690Z,22.2
2016-10-10T17:59:32.789Z,22.22
2016-10-10T18:00:32.940Z,22.32
2016-10-10T18:02:32.705Z,22.39
2016-10-10T18:03:32.574Z,22.34
2016-10-10T18:04:32.702Z,22.35
2016-10-10T18:05:47.197Z,22.39
2016-10-10T18:06:33.075Z,22.43
2016-10-10T18:07:32.547Z,22.5
2016-10-10T18:08:32.428Z,22.44
2016-10-10T18:09:32.794Z,22.56
2016-10-10T18:10:32.555Z,22.59
2016-10-10T18:11:32.588Z,22.6
2016-10-10T18:12:32.414Z,22.65
2016-10-10T18:13:32.409Z,22.54
2016-10-10T18:14:33.068Z,22.34
2016-10-10T18:15:33.210Z,22.2
2016-10-10T18:16:32.987Z,22.09
2016-10-10T18:17:32.808Z,21.97
2016-10-10T18:18:32.476Z,21.81
2016-10-10T18:19:33.000Z,21.69
2016-10-10T18:20:32.712Z,21.6
2016-10-10T18:21:32.288Z,21.45
2016-10-10T18:22:46.844Z,21.39
2016-10-10T18:23:32.129Z,21.27
2016-10-10T18:24:32.353Z,21.19
2016-10-10T18:25:32.176Z,21.13
2016-10-10T18:26:32.119Z,21.05
2016-10-10T18:27:47.256Z,20.96
2016-10-10T18:28:32.393Z,20.89
2016-10-10T18:29:46.712Z,20.95
2016-10-10T18:30:32.136Z,20.86
2016-10-10T18:31:32.091Z,20.86
2016-10-10T18:32:31.831Z,20.72
2016-10-10T18:33:32.013Z,20.68
2016-10-10T18:34:31.892Z,20.71
2016-10-10T18:35:32.755Z,20.54
2016-10-10T18:36:46.446Z,20.58
2016-10-10T18:37:31.849Z,20.54
2016-10-10T18:38:31.766Z,20.46
2016-10-10T18:39:31.848Z,20.41
2016-10-10T18:40:31.754Z,20.33
2016-10-10T18:41:32.115Z,20.34
2016-10-10T18:42:46.312Z,20.25
2016-10-10T18:43:31.655Z,20.23
2016-10-10T18:44:31.630Z,20.16
2016-10-10T18:45:31.782Z,20.21
2016-10-10T18:46:31.658Z,20.15
2016-10-10T18:47:31.982Z,20.12
2016-10-10T18:48:31.867Z,20.03
2016-10-10T18:49:46.255Z,20.06
2016-10-10T18:51:31.466Z,20
2016-10-10T18:52:31.429Z,20
2016-10-10T18:53:31.424Z,19.93
2016-10-10T18:54:31.838Z,19.88
2016-10-10T18:55:31.396Z,19.91
2016-10-10T18:56:32.409Z,20
2016-10-10T18:57:31.209Z,20.13
2016-10-10T18:58:31.267Z,20.27
2016-10-10T18:59:31.395Z,20.47
2016-10-10T19:00:31.864Z,20.71
2016-10-10T19:01:31.128Z,20.77
2016-10-10T19:02:31.083Z,20.99
2016-10-10T19:03:31.145Z,20.98
2016-10-10T19:04:31.059Z,21.08
2016-10-10T19:05:31.145Z,21.2
2016-10-10T19:06:31.000Z,21.27
2016-10-10T19:07:31.295Z,21.35
2016-10-10T19:08:30.943Z,21.5
2016-10-10T19:09:31.028Z,21.53
2016-10-10T19:10:30.935Z,21.69
2016-10-10T19:11:31.254Z,21.69
2016-10-10T19:12:31.297Z,21.81
2016-10-10T19:13:30.856Z,21.81
2016-10-10T19:14:31.341Z,21.95
2016-10-10T19:15:31.510Z,21.99
2016-10-10T19:16:31.147Z,22.02
2016-10-10T19:17:30.758Z,22.07
2016-10-10T19:18:30.943Z,22.07
2016-10-10T19:19:30.683Z,22.17
2016-10-10T19:21:31.081Z,22.16
2016-10-10T19:22:45.238Z,22.25
2016-10-10T19:23:30.740Z,22.32
2016-10-10T19:24:30.617Z,22.32
2016-10-10T19:25:30.537Z,22.43
2016-10-10T19:26:31.133Z,22.38
2016-10-10T19:27:30.461Z,22.38
2016-10-10T19:28:30.551Z,22.52
2016-10-10T19:29:30.545Z,22.52
2016-10-10T19:30:30.605Z,22.44
2016-10-10T19:31:30.502Z,22.56
2016-10-10T19:32:59.691Z,22.57
2016-10-10T19:33:30.731Z,22.57
2016-10-10T19:34:30.489Z,22.68
2016-10-10T19:38:01.899Z,22.37
2016-10-10T19:39:01.834Z,22.22
2016-10-10T19:40:01.850Z,22.06
2016-10-10T19:41:02.676Z,21.97
2016-10-10T19:42:01.765Z,21.82
2016-10-10T19:43:02.095Z,21.63
2016-10-10T19:45:54.707Z,21.26
2016-10-10T19:46:24.801Z,21.24
2016-10-10T19:47:24.823Z,21.21
2016-10-10T19:48:25.036Z,21.13
2016-10-10T19:49:24.919Z,21.05
2016-10-10T19:50:25.247Z,21.01
2016-10-10T19:51:27.470Z,20.91
2016-10-10T19:52:26.522Z,20.84
2016-10-10T19:53:24.727Z,20.83
2016-10-10T19:54:25.136Z,20.84
2016-10-10T19:58:10.904Z,20.64
2016-10-10T19:59:11.962Z,20.53
2016-10-10T20:00:11.147Z,20.53
2016-10-10T20:01:10.991Z,20.47
2016-10-10T20:02:10.785Z,20.38
2016-10-10T20:03:10.724Z,20.41
2016-10-10T20:04:10.770Z,20.3
2016-10-10T20:06:48.496Z,20.27
2016-10-10T20:07:34.506Z,20.27
2016-10-10T20:08:33.997Z,20.13
2016-10-10T20:09:34.828Z,20.13
2016-10-10T20:10:35.357Z,20.05
2016-10-10T20:11:49.773Z,20.08
2016-10-10T20:12:34.470Z,20.02
2016-10-10T20:13:34.295Z,20.03
2016-10-10T20:14:34.285Z,19.93
2016-10-10T20:15:48.300Z,19.93
2016-10-10T20:16:33.683Z,19.93
2016-10-10T20:17:34.234Z,19.87
2016-10-10T20:18:33.514Z,19.9
2016-10-10T20:19:33.727Z,19.88
2016-10-10T20:20:36.573Z,20.02
2016-10-10T20:21:33.549Z,20.1
2016-10-10T20:22:48.386Z,20.43
2016-10-10T20:23:33.447Z,20.54
2016-10-10T20:24:48.046Z,20.71
2016-10-10T20:25:34.340Z,20.84
2016-10-10T20:27:34.349Z,20.99
2016-10-10T20:28:48.858Z,21.13
2016-10-10T20:29:33.755Z,21.21
2016-10-10T20:30:33.279Z,21.24
2016-10-10T20:31:33.177Z,21.39
2016-10-10T20:32:33.315Z,21.45
2016-10-10T20:33:33.251Z,21.53
2016-10-10T20:34:33.649Z,21.59
2016-10-10T20:35:33.099Z,21.72
2016-10-10T20:36:33.078Z,21.79
2016-10-10T20:37:33.401Z,21.76
2016-10-10T20:38:33.403Z,21.85
2016-10-10T20:39:33.143Z,21.98
2016-10-10T20:44:19.237Z,22.1
2016-10-10T20:45:19.459Z,22.1
2016-10-10T20:46:33.884Z,22.23
2016-10-10T20:47:19.473Z,22.19
2016-10-10T20:48:19.415Z,22.2
2016-10-10T20:49:19.286Z,22.35
2016-10-10T20:50:33.839Z,22.37
2016-10-10T20:51:19.233Z,22.35
2016-10-10T20:52:19.305Z,22.35
2016-10-10T20:53:19.232Z,22.43
2016-10-10T20:54:19.206Z,22.41
2016-10-10T20:55:19.205Z,22.46
2016-10-10T20:57:19.167Z,22.47
2016-10-10T20:58:19.265Z,22.57
2016-10-10T20:59:19.649Z,22.59
2016-10-10T21:01:33.590Z,22.6
2016-10-10T21:02:20.092Z,22.44
2016-10-10T21:03:19.440Z,22.37
2016-10-10T21:04:19.031Z,22.1
2016-10-10T21:05:18.878Z,21.98
2016-10-10T21:06:18.742Z,21.92
2016-10-10T21:07:19.524Z,21.69
2016-10-10T21:08:18.683Z,21.63
2016-10-10T21:09:20.301Z,21.57
2016-10-10T21:10:19.396Z,21.38
2016-10-10T21:13:35.592Z,21.11
2016-10-10T21:14:35.595Z,21.06
2016-10-10T21:15:35.687Z,20.99
2016-10-10T21:16:35.601Z,20.91
2016-10-10T21:17:35.456Z,20.91
2016-10-10T21:18:35.914Z,20.87
2016-10-10T21:19:35.427Z,20.86
2016-10-10T21:20:50.069Z,20.83
2016-10-10T21:21:35.894Z,20.72
2016-10-10T21:22:35.366Z,20.68
2016-10-10T21:23:35.372Z,20.51
2016-10-10T21:24:35.297Z,20.51
2016-10-10T21:26:50.664Z,20.42
2016-10-10T21:27:35.349Z,20.47
2016-10-10T21:30:43.801Z,20.24
2016-10-10T21:33:07.170Z,20.1
2016-10-10T21:34:06.807Z,20.16
2016-10-10T21:35:06.782Z,20.15
2016-10-10T21:36:06.708Z,20
2016-10-10T21:37:07.159Z,19.98
2016-10-10T21:38:07.114Z,19.93
2016-10-10T21:39:06.968Z,20.06
2016-10-10T21:40:06.628Z,19.91
2016-10-10T21:41:06.934Z,19.86
2016-10-10T21:42:06.607Z,19.88
2016-10-10T21:43:06.526Z,19.87
2016-10-10T21:44:06.530Z,20
2016-10-10T21:45:06.924Z,20.1
2016-10-10T21:46:06.465Z,20.25
2016-10-10T21:47:06.410Z,20.54
2016-10-10T21:48:06.412Z,20.69
2016-10-10T21:49:06.494Z,20.87
2016-10-10T21:50:06.407Z,20.84
2016-10-10T21:51:06.746Z,21.06
2016-10-10T21:52:06.238Z,21.08
2016-10-10T21:53:06.884Z,21.21
2016-10-10T21:54:06.320Z,21.39
2016-10-10T21:55:06.264Z,21.38
2016-10-10T21:56:21.522Z,21.42
2016-10-10T21:57:06.170Z,21.54
2016-10-10T21:58:06.236Z,21.63
2016-10-10T21:59:20.743Z,21.66
2016-10-10T22:00:06.080Z,21.71
2016-10-10T22:01:06.105Z,21.82
2016-10-10T22:02:06.043Z,21.83
2016-10-10T22:03:06.016Z,21.98
2016-10-10T22:04:06.352Z,21.95
2016-10-10T22:05:20.913Z,22.02
2016-10-10T22:06:35.241Z,22.06
2016-10-10T22:07:06.480Z,22.12
2016-10-10T22:08:05.940Z,22.02
2016-10-10T22:09:06.757Z,22.16
2016-10-10T22:10:05.788Z,22.14
2016-10-10T22:11:05.845Z,22.25
2016-10-10T22:12:05.795Z,22.28
2016-10-10T22:13:05.723Z,22.34
2016-10-10T22:14:20.769Z,22.35
2016-10-10T22:15:05.688Z,22.39
2016-10-10T22:16:20.385Z,22.31
2016-10-10T22:17:05.695Z,22.39
2016-10-10T22:18:05.757Z,22.46
2016-10-10T22:19:05.660Z,22.44
2016-10-10T22:20:21.055Z,22.49
2016-10-10T22:21:20.195Z,22.5
2016-10-10T22:22:05.632Z,22.59
2016-10-10T22:23:05.547Z,22.59
2016-10-10T22:24:05.875Z,22.68
2016-10-10T22:25:05.883Z,22.64
2016-10-10T22:26:05.450Z,22.64
2016-10-10T22:27:05.399Z,22.59
2016-10-10T22:28:07.706Z,22.47
2016-10-10T22:29:05.368Z,22.23
2016-10-10T22:30:11.762Z,22.1
2016-10-10T22:31:05.484Z,21.99
2016-10-10T22:32:20.304Z,21.83
2016-10-10T22:33:05.660Z,21.71
2016-10-10T22:34:19.982Z,21.6
2016-10-10T22:35:08.075Z,21.5
2016-10-10T22:36:05.255Z,21.36
2016-10-10T22:37:05.702Z,21.29
2016-10-10T22:38:05.429Z,21.14
2016-10-10T22:39:05.516Z,21.11
2016-10-10T22:40:06.643Z,21.02
2016-10-10T22:41:05.095Z,20.99
2016-10-10T22:42:07.044Z,20.96
2016-10-10T22:43:05.491Z,20.9
2016-10-10T22:44:05.060Z,20.93
2016-10-10T22:45:05.174Z,20.83
2016-10-10T22:47:05.504Z,20.69
2016-10-10T22:48:19.861Z,20.64
2016-10-10T22:49:05.644Z,20.59
2016-10-10T22:51:05.469Z,20.51
2016-10-10T22:52:05.087Z,20.46
2016-10-10T22:53:05.104Z,20.31
2016-10-10T22:55:05.646Z,20.3
2016-10-10T22:56:05.303Z,20.25
2016-10-10T22:57:05.106Z,20.27
2016-10-10T22:58:05.296Z,20.2
2016-10-10T22:59:19.722Z,20.13
2016-10-10T23:01:04.653Z,20.06
2016-10-10T23:02:04.658Z,19.95
2016-10-10T23:03:05.532Z,20.03
2016-10-10T23:04:04.523Z,19.9
2016-10-10T23:05:04.710Z,19.93
2016-10-10T23:07:05.053Z,19.9
2016-10-10T23:08:04.559Z,20.02
2016-10-10T23:09:04.631Z,20.13
2016-10-10T23:10:04.812Z,20.33
2016-10-10T23:11:05.827Z,20.5
2016-10-10T23:12:04.677Z,20.62
2016-10-10T23:13:05.343Z,20.87
2016-10-10T23:14:04.500Z,20.95
2016-10-10T23:15:04.331Z,20.96
2016-10-10T23:16:05.921Z,21.13
2016-10-10T23:17:04.406Z,21.16
2016-10-10T23:18:04.383Z,21.26
2016-10-10T23:19:04.378Z,21.41
2016-10-10T23:20:04.332Z,21.45
2016-10-10T23:21:18.847Z,21.56
2016-10-10T23:22:04.365Z,21.6
2016-10-10T23:23:05.927Z,21.63
2016-10-10T23:24:04.381Z,21.76
2016-10-10T23:25:04.057Z,21.82
2016-10-10T23:26:04.192Z,21.98
2016-10-10T23:27:05.464Z,21.94
2016-10-10T23:28:04.001Z,21.79
2016-10-10T23:29:04.330Z,21.91
2016-10-10T23:31:04.408Z,22.02
2016-10-10T23:32:03.926Z,22.09
